createdAt,value
2017-05-29T00:01:51.300Z,10.20
2017-05-29T00:04:17.981Z,10.23
2017-05-29T00:06:44.656Z,10.42
2017-05-29T00:09:11.338Z,10.80
2017-05-29T00:11:38.025Z,11.10
2017-05-29T00:14:04.703Z,9.55
2017-05-29T00:16:31.392Z,13.17
2017-05-29T00:18:58.071Z,11.78
2017-05-29T00:21:24.759Z,15.43
2017-05-29T00:23:51.438Z,11.03
2017-05-29T00:26:18.137Z,11.83
2017-05-29T00:28:44.820Z,10.83
2017-05-29T00:31:11.511Z,11.58
2017-05-29T00:33:38.235Z,11.17
2017-05-29T00:36:04.917Z,10.13
2017-05-29T00:38:31.606Z,11.82
2017-05-29T00:40:58.320Z,10.62
2017-05-29T00:43:25.020Z,11.07
2017-05-29T00:45:51.721Z,11.00
2017-05-29T00:48:18.409Z,10.83
2017-05-29T00:50:45.113Z,10.35
2017-05-29T00:53:11.798Z,10.00
2017-05-29T00:55:38.500Z,10.83
2017-05-29T00:58:05.182Z,15.28
2017-05-29T01:00:31.867Z,10.88
2017-05-29T01:02:58.584Z,11.98
2017-05-29T01:05:25.274Z,11.23
2017-05-29T01:07:51.994Z,13.15
2017-05-29T01:10:18.672Z,10.90
2017-05-29T01:12:45.404Z,11.77
2017-05-29T01:15:12.085Z,12.02
2017-05-29T01:17:38.768Z,11.25
2017-05-29T01:20:05.455Z,11.37
2017-05-29T01:22:32.137Z,13.25
2017-05-29T01:24:58.873Z,11.18
2017-05-29T01:27:25.557Z,12.85
2017-05-29T01:29:52.259Z,11.88
2017-05-29T01:32:18.946Z,11.37
2017-05-29T01:34:45.665Z,13.00
2017-05-29T01:37:12.351Z,13.18
2017-05-29T01:39:39.049Z,12.82
2017-05-29T01:42:05.733Z,12.38
2017-05-29T01:44:32.416Z,13.38
2017-05-29T01:46:59.105Z,15.43
2017-05-29T01:49:25.793Z,13.43
2017-05-29T01:51:52.500Z,12.28
2017-05-29T01:54:19.187Z,12.37
2017-05-29T01:56:45.898Z,12.60
2017-05-29T01:59:12.580Z,13.77
2017-05-29T02:01:39.260Z,13.88
2017-05-29T02:04:05.945Z,12.40
2017-05-29T02:06:32.628Z,13.42
2017-05-29T02:08:59.314Z,12.80
2017-05-29T02:11:26.004Z,13.27
2017-05-29T02:13:52.717Z,13.85
2017-05-29T02:16:19.405Z,12.57
2017-05-29T02:18:46.090Z,11.97
2017-05-29T02:21:13.004Z,12.75
2017-05-29T02:23:39.688Z,12.60
2017-05-29T02:26:06.380Z,13.15
2017-05-29T02:28:33.064Z,13.53
2017-05-29T02:30:59.752Z,12.00
2017-05-29T02:33:26.437Z,12.68
2017-05-29T02:35:55.427Z,12.15
2017-05-29T02:38:22.173Z,12.23
2017-05-29T02:40:48.857Z,12.62
2017-05-29T02:43:15.542Z,12.88
2017-05-29T02:45:42.228Z,12.83
2017-05-29T02:48:08.912Z,10.92
2017-05-29T02:50:35.608Z,12.17
2017-05-29T02:53:02.288Z,11.40
2017-05-29T02:55:28.970Z,10.10
2017-05-29T02:57:55.661Z,10.73
2017-05-29T03:00:22.340Z,9.95
2017-05-29T03:02:49.041Z,9.93
2017-05-29T03:05:15.724Z,10.12
2017-05-29T03:07:42.404Z,9.13
2017-05-29T03:10:09.078Z,8.77
2017-05-29T03:12:35.756Z,13.35
2017-05-29T03:15:02.440Z,9.28
2017-05-29T03:17:29.113Z,9.33
2017-05-29T03:19:55.797Z,9.47
2017-05-29T03:22:22.470Z,9.02
2017-05-29T03:24:49.179Z,9.65
2017-05-29T03:27:15.855Z,9.38
2017-05-29T03:29:42.532Z,9.08
2017-05-29T03:32:09.220Z,10.38
2017-05-29T03:34:35.899Z,9.20
2017-05-29T03:37:02.590Z,12.38
2017-05-29T03:39:29.267Z,9.35
2017-05-29T03:41:55.949Z,9.48
2017-05-29T03:44:22.629Z,9.93
2017-05-29T03:46:49.338Z,10.67
2017-05-29T03:49:16.013Z,9.88
2017-05-29T03:51:42.688Z,10.43
2017-05-29T03:54:09.369Z,11.35
2017-05-29T03:56:36.060Z,12.23
2017-05-29T03:59:02.745Z,10.27
2017-05-29T04:01:29.429Z,10.83
2017-05-29T04:03:56.111Z,9.57
2017-05-29T04:06:22.797Z,10.37
2017-05-29T04:08:49.476Z,9.75
2017-05-29T04:11:16.165Z,10.63
2017-05-29T04:13:42.884Z,10.02
2017-05-29T04:16:09.568Z,11.57
2017-05-29T04:18:36.249Z,10.13
2017-05-29T04:21:02.931Z,9.83
2017-05-29T04:23:29.625Z,10.70
2017-05-29T04:25:56.317Z,10.88
2017-05-29T04:28:23.001Z,10.83
2017-05-29T04:30:49.693Z,10.77
2017-05-29T04:33:16.372Z,11.12
2017-05-29T04:35:43.064Z,10.48
2017-05-29T04:38:09.743Z,11.95
2017-05-29T04:40:36.657Z,11.15
2017-05-29T04:43:03.345Z,11.28
2017-05-29T04:45:30.031Z,11.02
2017-05-29T04:47:56.736Z,11.22
2017-05-29T04:50:23.435Z,10.40
2017-05-29T04:52:50.117Z,9.95
2017-05-29T04:55:16.800Z,11.23
2017-05-29T04:57:43.480Z,10.42
2017-05-29T05:00:10.186Z,11.05
2017-05-29T05:02:36.900Z,10.60
2017-05-29T05:05:03.584Z,10.63
2017-05-29T05:07:30.365Z,11.02
2017-05-29T05:09:57.048Z,10.93
2017-05-29T05:12:23.737Z,12.25
2017-05-29T05:14:50.429Z,10.92
2017-05-29T05:17:17.129Z,12.05
2017-05-29T05:19:43.829Z,12.38
2017-05-29T05:22:10.503Z,11.98
2017-05-29T05:24:37.189Z,11.36
2017-05-29T05:27:03.896Z,12.14
2017-05-29T05:29:30.577Z,12.74
2017-05-29T05:31:57.289Z,11.94
2017-05-29T05:34:23.992Z,13.40
2017-05-29T05:36:50.700Z,13.36
2017-05-29T05:39:17.395Z,11.60
2017-05-29T05:41:44.081Z,12.40
2017-05-29T05:44:10.765Z,13.10
2017-05-29T05:46:37.469Z,12.66
2017-05-29T05:49:04.181Z,13.48
2017-05-29T05:51:30.872Z,13.84
2017-05-29T05:53:57.598Z,12.78
2017-05-29T05:56:24.280Z,12.44
2017-05-29T05:58:50.969Z,13.20
2017-05-29T06:01:17.668Z,13.33
2017-05-29T06:03:44.355Z,12.04
2017-05-29T06:06:11.065Z,12.90
2017-05-29T06:08:37.752Z,12.68
2017-05-29T06:11:04.476Z,12.26
2017-05-29T06:13:31.156Z,11.88
2017-05-29T06:15:57.841Z,10.76
2017-05-29T06:18:24.529Z,11.66
2017-05-29T06:20:51.210Z,11.36
2017-05-29T06:23:17.880Z,11.26
2017-05-29T06:25:44.560Z,10.42
2017-05-29T06:28:11.232Z,10.06
2017-05-29T06:30:37.908Z,9.20
2017-05-29T06:33:04.601Z,9.70
2017-05-29T06:35:31.272Z,8.68
2017-05-29T06:37:58.031Z,10.16
2017-05-29T06:40:24.692Z,9.50
2017-05-29T06:42:51.372Z,9.68
2017-05-29T06:45:18.048Z,8.90
2017-05-29T06:47:44.720Z,8.08
2017-05-29T06:50:11.420Z,9.32
2017-05-29T06:52:38.102Z,12.22
2017-05-29T06:55:04.808Z,9.20
2017-05-29T06:57:31.480Z,9.24
2017-05-29T06:59:58.153Z,9.50
2017-05-29T07:02:24.833Z,11.00
2017-05-29T07:04:51.504Z,9.58
2017-05-29T07:07:18.183Z,10.22
2017-05-29T07:09:44.860Z,9.98
2017-05-29T07:12:11.560Z,9.46
2017-05-29T07:14:38.238Z,9.50
2017-05-29T07:17:04.953Z,9.92
2017-05-29T07:19:31.620Z,9.84
2017-05-29T07:21:58.291Z,10.48
2017-05-29T07:24:24.969Z,10.08
2017-05-29T07:26:51.652Z,10.28
2017-05-29T07:29:18.358Z,10.00
2017-05-29T07:31:45.039Z,9.66
2017-05-29T07:34:11.776Z,10.84
2017-05-29T07:36:38.456Z,9.64
2017-05-29T07:39:05.533Z,10.54
2017-05-29T07:41:32.205Z,10.30
2017-05-29T07:43:58.892Z,11.04
2017-05-29T07:46:25.595Z,11.24
2017-05-29T07:48:52.280Z,11.24
2017-05-29T07:51:19.001Z,11.84
2017-05-29T07:53:45.680Z,10.40
2017-05-29T07:56:12.365Z,12.14
2017-05-29T07:58:39.052Z,11.86
2017-05-29T08:01:05.736Z,12.94
2017-05-29T08:03:32.444Z,11.96
2017-05-29T08:05:59.124Z,10.80
2017-05-29T08:08:25.841Z,11.04
2017-05-29T08:10:52.524Z,11.98
2017-05-29T08:13:19.225Z,11.36
2017-05-29T08:15:45.905Z,11.30
2017-05-29T08:18:12.593Z,11.96
2017-05-29T08:20:39.310Z,12.60
2017-05-29T08:23:06.005Z,12.46
2017-05-29T08:25:32.717Z,12.60
2017-05-29T08:27:59.401Z,11.22
2017-05-29T08:30:26.085Z,11.18
2017-05-29T08:32:52.773Z,12.16
2017-05-29T08:35:19.457Z,12.06
2017-05-29T08:37:46.164Z,11.32
2017-05-29T08:40:12.861Z,11.14
2017-05-29T08:42:39.572Z,9.90
2017-05-29T08:45:06.246Z,9.92
2017-05-29T08:47:32.927Z,10.68
2017-05-29T08:50:02.769Z,8.84
2017-05-29T08:52:29.445Z,9.20
2017-05-29T08:54:56.146Z,9.96
2017-05-29T08:57:22.824Z,10.38
2017-05-29T08:59:49.525Z,9.84
2017-05-29T09:02:16.206Z,8.64
2017-05-29T09:04:42.884Z,8.66
2017-05-29T09:07:09.576Z,10.82
2017-05-29T09:09:36.264Z,10.88
2017-05-29T09:12:02.944Z,10.82
2017-05-29T09:14:29.624Z,11.82
2017-05-29T09:16:56.341Z,11.66
2017-05-29T09:19:23.037Z,13.02
2017-05-29T09:21:49.752Z,12.90
2017-05-29T09:24:16.433Z,13.32
2017-05-29T09:26:43.121Z,13.38
2017-05-29T09:29:09.808Z,14.34
2017-05-29T09:31:36.492Z,14.72
2017-05-29T09:34:03.176Z,15.02
2017-05-29T09:36:29.861Z,15.14
2017-05-29T09:38:56.573Z,15.34
2017-05-29T09:41:23.254Z,16.70
2017-05-29T09:43:49.940Z,13.96
2017-05-29T09:46:16.630Z,15.42
2017-05-29T09:48:43.311Z,13.74
2017-05-29T09:51:09.993Z,12.90
2017-05-29T09:53:36.680Z,14.70
2017-05-29T09:56:03.366Z,14.96
2017-05-29T09:58:30.073Z,16.40
2017-05-29T10:00:56.762Z,15.32
2017-05-29T10:03:23.472Z,18.34
2017-05-29T10:05:50.157Z,15.70
2017-05-29T10:08:16.886Z,17.78
2017-05-29T10:10:43.586Z,17.12
2017-05-29T10:13:10.272Z,17.32
2017-05-29T10:15:36.964Z,18.48
2017-05-29T10:18:03.649Z,19.90
2017-05-29T10:20:30.361Z,17.24
2017-05-29T10:22:57.044Z,18.06
2017-05-29T10:25:23.749Z,18.58
2017-05-29T10:27:50.432Z,19.90
2017-05-29T10:30:17.160Z,19.22
2017-05-29T10:32:43.976Z,20.04
2017-05-29T10:35:11.724Z,21.24
2017-05-29T10:37:38.400Z,19.92
2017-05-29T10:40:05.082Z,21.68
2017-05-29T10:42:31.787Z,21.58
2017-05-29T10:44:58.478Z,21.12
2017-05-29T10:47:25.186Z,20.90
2017-05-29T10:49:51.869Z,22.88
2017-05-29T10:52:18.573Z,21.42
2017-05-29T10:54:45.257Z,20.22
2017-05-29T10:57:11.973Z,21.26
2017-05-29T10:59:38.662Z,19.98
2017-05-29T11:02:05.350Z,18.80
2017-05-29T11:04:32.054Z,16.68
2017-05-29T11:06:58.749Z,17.90
2017-05-29T11:09:25.447Z,15.88
2017-05-29T11:11:52.127Z,16.80
2017-05-29T11:14:18.845Z,16.32
2017-05-29T11:16:45.541Z,15.46
2017-05-29T11:19:12.256Z,13.36
2017-05-29T11:21:38.935Z,12.58
2017-05-29T11:24:05.861Z,13.38
2017-05-29T11:26:32.550Z,13.10
2017-05-29T11:28:59.236Z,14.14
2017-05-29T11:31:25.948Z,11.86
2017-05-29T11:33:52.640Z,12.48
2017-05-29T11:36:19.344Z,17.52
2017-05-29T11:38:46.019Z,10.84
2017-05-29T11:41:12.724Z,11.88
2017-05-29T11:43:39.405Z,11.42
2017-05-29T11:46:06.105Z,11.22
2017-05-29T11:48:32.789Z,10.70
2017-05-29T11:50:59.468Z,10.88
2017-05-29T11:53:26.150Z,11.48
2017-05-29T11:55:52.824Z,9.90
2017-05-29T11:58:19.520Z,8.98
2017-05-29T12:00:46.192Z,9.34
2017-05-29T12:03:12.896Z,12.22
2017-05-29T12:05:39.569Z,11.88
2017-05-29T12:08:06.272Z,9.76
2017-05-29T12:10:34.852Z,10.62
2017-05-29T12:13:01.585Z,9.74
2017-05-29T12:15:28.256Z,8.60
2017-05-29T12:17:54.928Z,9.98
2017-05-29T12:20:21.613Z,9.38
2017-05-29T12:22:48.285Z,8.44
2017-05-29T12:25:14.980Z,9.82
2017-05-29T12:27:41.661Z,8.22
2017-05-29T12:30:08.357Z,8.50
2017-05-29T12:32:35.028Z,8.54
2017-05-29T12:35:01.752Z,7.24
2017-05-29T12:37:28.428Z,8.86
2017-05-29T12:39:55.101Z,8.34
2017-05-29T12:42:21.779Z,8.88
2017-05-29T12:44:48.452Z,9.80
2017-05-29T12:47:15.156Z,8.82
2017-05-29T12:49:41.831Z,9.54
2017-05-29T12:52:08.535Z,8.86
2017-05-29T12:54:35.214Z,8.60
2017-05-29T12:57:01.932Z,9.64
2017-05-29T12:59:28.601Z,8.92
2017-05-29T13:01:55.271Z,7.92
2017-05-29T13:04:21.948Z,8.32
2017-05-29T13:06:48.628Z,8.50
2017-05-29T13:09:15.331Z,8.60
2017-05-29T13:11:41.999Z,9.64
2017-05-29T13:14:08.696Z,9.56
2017-05-29T13:16:35.364Z,9.00
2017-05-29T13:19:02.082Z,11.58
2017-05-29T13:21:28.760Z,8.52
2017-05-29T13:23:55.436Z,9.16
2017-05-29T13:26:22.116Z,8.22
2017-05-29T13:28:48.795Z,9.78
2017-05-29T13:31:15.470Z,8.82
2017-05-29T13:33:42.144Z,9.20
2017-05-29T13:36:08.811Z,9.24
2017-05-29T13:38:35.480Z,8.88
2017-05-29T13:41:02.187Z,9.46
2017-05-29T13:43:28.860Z,9.76
2017-05-29T13:45:55.577Z,10.00
2017-05-29T13:48:22.260Z,10.16
2017-05-29T13:50:48.931Z,9.36
2017-05-29T13:53:15.611Z,10.04
2017-05-29T13:55:42.288Z,9.70
2017-05-29T13:58:08.968Z,10.02
2017-05-29T14:00:35.655Z,10.82
2017-05-29T14:03:02.324Z,9.46
2017-05-29T14:05:29.004Z,11.26
2017-05-29T14:07:55.700Z,9.70
2017-05-29T14:10:22.380Z,10.50
2017-05-29T14:12:49.068Z,10.90
2017-05-29T14:15:15.780Z,11.58
2017-05-29T14:17:42.468Z,12.08
2017-05-29T14:20:09.148Z,11.68
2017-05-29T14:22:35.856Z,11.48
2017-05-29T14:25:02.551Z,12.32
2017-05-29T14:27:29.261Z,12.20
2017-05-29T14:29:55.952Z,12.48
2017-05-29T14:32:22.672Z,12.42
2017-05-29T14:34:49.360Z,12.92
2017-05-29T14:37:16.048Z,12.64
2017-05-29T14:39:42.749Z,11.76
2017-05-29T14:42:09.437Z,13.08
2017-05-29T14:44:36.149Z,13.32
2017-05-29T14:47:02.836Z,13.16
2017-05-29T14:49:29.548Z,13.16
2017-05-29T14:51:56.236Z,12.10
2017-05-29T14:54:22.939Z,12.64
2017-05-29T14:56:49.621Z,12.00
2017-05-29T14:59:16.359Z,13.24
2017-05-29T15:01:43.044Z,13.58
2017-05-29T15:04:09.725Z,13.76
2017-05-29T15:06:36.412Z,14.00
2017-05-29T15:09:03.091Z,13.24
2017-05-29T15:11:29.835Z,13.18
2017-05-29T15:13:56.524Z,13.20
2017-05-29T15:16:23.239Z,13.60
2017-05-29T15:18:49.916Z,12.86
2017-05-29T15:21:16.628Z,13.58
2017-05-29T15:23:43.320Z,12.02
2017-05-29T15:26:10.050Z,13.90
2017-05-29T15:28:36.732Z,12.74
2017-05-29T15:31:03.423Z,14.10
2017-05-29T15:33:30.104Z,12.46
2017-05-29T15:35:56.793Z,13.50
2017-05-29T15:38:23.476Z,13.52
2017-05-29T15:40:50.173Z,13.54
2017-05-29T15:43:16.884Z,13.56
2017-05-29T15:45:43.568Z,13.74
2017-05-29T15:48:10.279Z,13.02
2017-05-29T15:50:36.989Z,13.54
2017-05-29T15:53:03.704Z,14.14
2017-05-29T15:55:30.393Z,12.78
2017-05-29T15:57:57.078Z,13.92
2017-05-29T16:00:23.765Z,12.68
2017-05-29T16:02:50.453Z,13.12
2017-05-29T16:05:17.137Z,13.32
2017-05-29T16:07:43.821Z,12.64
2017-05-29T16:10:10.510Z,12.98
2017-05-29T16:12:37.192Z,12.52
2017-05-29T16:15:03.910Z,12.80
2017-05-29T16:17:30.595Z,12.74
2017-05-29T16:19:57.309Z,12.28
2017-05-29T16:22:23.996Z,13.04
2017-05-29T16:24:50.680Z,13.42
2017-05-29T16:27:17.366Z,13.10
2017-05-29T16:29:44.053Z,13.22
2017-05-29T16:32:13.560Z,13.06
2017-05-29T16:34:40.249Z,13.04
2017-05-29T16:37:06.944Z,12.96
2017-05-29T16:39:33.624Z,12.86
2017-05-29T16:42:00.332Z,12.88
2017-05-29T16:44:27.019Z,13.04
2017-05-29T16:46:53.736Z,13.60
2017-05-29T16:49:20.424Z,13.56
2017-05-29T16:51:47.112Z,14.52
2017-05-29T16:54:13.805Z,13.40
2017-05-29T16:56:40.488Z,13.62
2017-05-29T16:59:07.176Z,13.00
2017-05-29T17:01:33.866Z,13.74
2017-05-29T17:04:00.573Z,14.80
2017-05-29T17:06:27.260Z,15.56
2017-05-29T17:08:53.950Z,14.92
2017-05-29T17:11:20.638Z,14.42
2017-05-29T17:13:47.329Z,16.04
2017-05-29T17:16:14.010Z,14.80
2017-05-29T17:18:40.690Z,15.32
2017-05-29T17:21:07.375Z,14.58
2017-05-29T17:23:34.065Z,14.34
2017-05-29T17:26:00.788Z,16.62
2017-05-29T17:28:27.476Z,15.06
2017-05-29T17:30:54.161Z,15.78
2017-05-29T17:33:20.852Z,16.54
2017-05-29T17:35:47.536Z,14.44
2017-05-29T17:38:14.234Z,14.84
2017-05-29T17:40:40.920Z,15.54
2017-05-29T17:43:07.600Z,15.22
2017-05-29T17:45:34.284Z,14.46
2017-05-29T17:48:00.976Z,16.34
2017-05-29T17:50:27.661Z,15.10
2017-05-29T17:52:54.396Z,16.46
2017-05-29T17:55:21.084Z,14.62
2017-05-29T17:57:47.769Z,15.50
2017-05-29T18:00:14.460Z,14.84
2017-05-29T18:02:41.152Z,14.98
2017-05-29T18:05:07.828Z,15.66
2017-05-29T18:07:34.521Z,16.06
2017-05-29T18:10:01.213Z,16.42
2017-05-29T18:12:27.896Z,15.54
2017-05-29T18:14:54.577Z,15.04
2017-05-29T18:17:21.281Z,16.10
2017-05-29T18:19:47.973Z,15.92
2017-05-29T18:22:14.661Z,16.28
2017-05-29T18:24:41.352Z,16.36
2017-05-29T18:27:08.070Z,14.96
2017-05-29T18:29:34.754Z,18.10
2017-05-29T18:32:01.468Z,15.80
2017-05-29T18:34:28.156Z,15.32
2017-05-29T18:36:54.868Z,16.22
2017-05-29T18:39:21.557Z,16.44
2017-05-29T18:41:48.269Z,16.24
2017-05-29T18:44:14.975Z,14.80
2017-05-29T18:46:41.688Z,16.28
2017-05-29T18:49:08.385Z,17.52
2017-05-29T18:51:35.073Z,16.80
2017-05-29T18:54:01.769Z,16.78
2017-05-29T18:56:28.456Z,16.04
2017-05-29T18:58:55.169Z,18.12
2017-05-29T19:01:21.861Z,18.42
2017-05-29T19:03:48.572Z,17.64
2017-05-29T19:06:15.260Z,18.06
2017-05-29T19:08:41.972Z,16.54
2017-05-29T19:11:08.665Z,16.20
2017-05-29T19:13:35.349Z,17.74
2017-05-29T19:16:02.036Z,15.94
2017-05-29T19:18:28.725Z,16.64
2017-05-29T19:20:55.408Z,19.12
2017-05-29T19:23:22.095Z,17.16
2017-05-29T19:25:48.799Z,17.46
2017-05-29T19:28:15.476Z,18.52
2017-05-29T19:30:42.188Z,19.10
2017-05-29T19:33:08.876Z,17.86
2017-05-29T19:35:35.597Z,17.44
2017-05-29T19:38:02.284Z,18.44
2017-05-29T19:40:29.197Z,20.58
2017-05-29T19:42:55.899Z,22.12
2017-05-29T19:45:22.579Z,26.38
2017-05-29T19:47:49.269Z,26.34
2017-05-29T19:50:15.953Z,24.60
2017-05-29T19:52:42.656Z,24.24
2017-05-29T19:55:09.343Z,26.26
2017-05-29T19:57:36.060Z,24.90
2017-05-29T20:00:02.741Z,27.54
2017-05-29T20:02:29.468Z,27.52
2017-05-29T20:04:56.161Z,24.04
2017-05-29T20:07:22.844Z,23.86
2017-05-29T20:09:49.529Z,22.08
2017-05-29T20:12:16.220Z,22.00
2017-05-29T20:14:42.908Z,23.64
2017-05-29T20:17:09.608Z,22.70
2017-05-29T20:19:36.293Z,23.70
2017-05-29T20:22:02.972Z,22.62
2017-05-29T20:24:29.680Z,25.02
2017-05-29T20:26:56.359Z,23.50
2017-05-29T20:29:23.076Z,25.74
2017-05-29T20:31:49.764Z,25.58
2017-05-29T20:34:16.449Z,26.52
2017-05-29T20:36:43.137Z,24.94
2017-05-29T20:39:09.816Z,25.86
2017-05-29T20:41:36.519Z,26.50
2017-05-29T20:44:03.204Z,25.64
2017-05-29T20:46:29.896Z,25.42
2017-05-29T20:48:56.595Z,26.32
2017-05-29T20:51:23.301Z,23.44
2017-05-29T20:53:49.989Z,25.32
2017-05-29T20:56:16.672Z,23.08
2017-05-29T20:58:43.366Z,23.24
2017-05-29T21:01:10.048Z,22.60
2017-05-29T21:03:36.744Z,22.04
2017-05-29T21:06:03.428Z,23.00
2017-05-29T21:08:30.120Z,20.68
2017-05-29T21:10:56.801Z,21.76
2017-05-29T21:13:23.517Z,19.18
2017-05-29T21:15:50.205Z,21.20
2017-05-29T21:18:16.917Z,20.52
2017-05-29T21:20:43.596Z,19.24
2017-05-29T21:23:10.281Z,21.78
2017-05-29T21:25:36.967Z,20.30
2017-05-29T21:28:03.662Z,19.64
2017-05-29T21:30:30.352Z,20.40
2017-05-29T21:32:57.056Z,20.96
2017-05-29T21:35:23.760Z,22.68
2017-05-29T21:37:50.446Z,22.22
2017-05-29T21:40:17.137Z,22.70
2017-05-29T21:42:43.819Z,24.32
2017-05-29T21:45:10.563Z,23.72
2017-05-29T21:47:37.255Z,25.30
2017-05-29T21:50:03.941Z,26.16
2017-05-29T21:52:30.624Z,28.64
2017-05-29T21:54:57.307Z,26.90
2017-05-29T21:57:23.985Z,26.62
2017-05-29T21:59:50.693Z,27.87
2017-05-29T22:02:17.376Z,28.66
2017-05-29T22:04:44.056Z,28.90
2017-05-29T22:07:10.754Z,29.34
2017-05-29T22:09:37.441Z,27.50
2017-05-29T22:12:04.161Z,27.62
2017-05-29T22:14:30.861Z,30.56
2017-05-29T22:16:57.585Z,28.60
2017-05-29T22:19:24.293Z,28.93
2017-05-29T22:21:50.988Z,28.88
2017-05-29T22:24:17.669Z,29.18
2017-05-29T22:26:44.358Z,32.34
2017-05-29T22:29:11.050Z,26.84
2017-05-29T22:31:37.761Z,27.43
2017-05-29T22:34:04.457Z,29.10
2017-05-29T22:36:31.152Z,26.30
2017-05-29T22:38:57.891Z,27.05
2017-05-29T22:41:24.598Z,26.43
2017-05-29T22:43:51.311Z,25.90
2017-05-29T22:46:18.042Z,26.35
2017-05-29T22:48:44.748Z,25.57
2017-05-29T22:51:11.451Z,26.66
2017-05-29T22:53:38.148Z,26.68
2017-05-29T22:56:04.861Z,26.78
2017-05-29T22:58:31.555Z,27.55
2017-05-29T23:00:58.245Z,27.50
2017-05-29T23:03:24.935Z,25.17
2017-05-29T23:05:51.622Z,24.70
2017-05-29T23:08:18.344Z,24.72
2017-05-29T23:10:45.041Z,23.13
2017-05-29T23:13:11.752Z,24.26
2017-05-29T23:15:38.444Z,25.03
2017-05-29T23:18:05.165Z,24.70
2017-05-29T23:20:31.857Z,25.48
2017-05-29T23:22:58.577Z,24.67
2017-05-29T23:25:25.268Z,25.45
2017-05-29T23:27:51.961Z,23.72
2017-05-29T23:30:18.653Z,25.08
2017-05-29T23:32:45.344Z,25.68
2017-05-29T23:35:12.061Z,24.45
2017-05-29T23:37:38.760Z,25.00
2017-05-29T23:40:05.480Z,25.43
2017-05-29T23:42:32.169Z,26.08
2017-05-29T23:44:58.887Z,24.97
2017-05-29T23:47:25.584Z,24.52
2017-05-29T23:49:52.296Z,25.43
2017-05-29T23:52:18.994Z,26.57
2017-05-29T23:54:45.708Z,25.12
2017-05-29T23:57:12.410Z,25.65
2017-05-29T23:59:39.100Z,27.32
